sensor_id;sensor_type;location;lat;lon;timestamp;temperature;humidity
74940;HTU21D;63505;45.226;37.908;2022-12-18T00:01:37;11.30;76.92
74940;HTU21D;63505;45.226;37.908;2022-12-18T00:04:04;11.28;76.70
74940;HTU21D;63505;45.226;37.908;2022-12-18T00:06:32;11.29;76.60
74940;HTU21D;63505;45.226;37.908;2022-12-18T00:08:59;11.27;76.55
74940;HTU21D;63505;45.226;37.908;2022-12-18T00:11:28;11.25;76.53
74940;HTU21D;63505;45.226;37.908;2022-12-18T00:13:54;11.22;76.51
74940;HTU21D;63505;45.226;37.908;2022-12-18T00:16:22;11.20;76.50
74940;HTU21D;63505;45.226;37.908;2022-12-18T00:18:50;11.24;76.39
74940;HTU21D;63505;45.226;37.908;2022-12-18T00:21:16;11.22;76.47
74940;HTU21D;63505;45.226;37.908;2022-12-18T00:23:43;11.17;76.64
74940;HTU21D;63505;45.226;37.908;2022-12-18T00:26:15;11.12;76.82
74940;HTU21D;63505;45.226;37.908;2022-12-18T00:28:42;11.05;77.00
74940;HTU21D;63505;45.226;37.908;2022-12-18T00:31:11;11.02;77.11
74940;HTU21D;63505;45.226;37.908;2022-12-18T00:33:38;10.96;77.22
74940;HTU21D;63505;45.226;37.908;2022-12-18T00:36:07;10.92;77.36
74940;HTU21D;63505;45.226;37.908;2022-12-18T00:38:33;10.85;77.47
74940;HTU21D;63505;45.226;37.908;2022-12-18T00:40:59;10.84;77.53
74940;HTU21D;63505;45.226;37.908;2022-12-18T00:43:25;10.81;77.55
74940;HTU21D;63505;45.226;37.908;2022-12-18T00:45:52;10.84;77.60
74940;HTU21D;63505;45.226;37.908;2022-12-18T00:48:18;10.86;77.44
74940;HTU21D;63505;45.226;37.908;2022-12-18T00:50:44;10.86;77.42
74940;HTU21D;63505;45.226;37.908;2022-12-18T00:53:10;10.85;77.44
74940;HTU21D;63505;45.226;37.908;2022-12-18T00:55:38;10.88;77.44
74940;HTU21D;63505;45.226;37.908;2022-12-18T00:58:05;10.90;77.39
74940;HTU21D;63505;45.226;37.908;2022-12-18T01:00:30;10.87;77.41
74940;HTU21D;63505;45.226;37.908;2022-12-18T01:02:56;10.84;77.46
74940;HTU21D;63505;45.226;37.908;2022-12-18T01:05:24;10.79;77.55
74940;HTU21D;63505;45.226;37.908;2022-12-18T01:07:50;10.77;77.60
74940;HTU21D;63505;45.226;37.908;2022-12-18T01:10:16;10.77;77.63
74940;HTU21D;63505;45.226;37.908;2022-12-18T01:12:42;10.80;77.63
74940;HTU21D;63505;45.226;37.908;2022-12-18T01:15:10;10.89;77.56
74940;HTU21D;63505;45.226;37.908;2022-12-18T01:17:37;11.02;77.46
74940;HTU21D;63505;45.226;37.908;2022-12-18T01:20:03;11.15;77.25
74940;HTU21D;63505;45.226;37.908;2022-12-18T01:22:29;11.32;76.98
74940;HTU21D;63505;45.226;37.908;2022-12-18T01:24:55;11.45;76.74
74940;HTU21D;63505;45.226;37.908;2022-12-18T01:27:22;11.54;76.58
74940;HTU21D;63505;45.226;37.908;2022-12-18T01:29:49;11.56;76.48
74940;HTU21D;63505;45.226;37.908;2022-12-18T01:32:15;11.56;76.20
74940;HTU21D;63505;45.226;37.908;2022-12-18T01:34:41;11.49;76.01
74940;HTU21D;63505;45.226;37.908;2022-12-18T01:37:06;11.37;75.92
74940;HTU21D;63505;45.226;37.908;2022-12-18T01:39:33;11.28;76.00
74940;HTU21D;63505;45.226;37.908;2022-12-18T01:42:00;11.26;76.03
74940;HTU21D;63505;45.226;37.908;2022-12-18T01:44:57;11.29;75.94
74940;HTU21D;63505;45.226;37.908;2022-12-18T01:49:52;11.38;75.34
74940;HTU21D;63505;45.226;37.908;2022-12-18T01:52:19;11.38;75.39
74940;HTU21D;63505;45.226;37.908;2022-12-18T01:54:46;11.40;75.41
74940;HTU21D;63505;45.226;37.908;2022-12-18T01:57:13;11.38;75.52
74940;HTU21D;63505;45.226;37.908;2022-12-18T01:59:42;11.34;75.70
74940;HTU21D;63505;45.226;37.908;2022-12-18T02:02:08;11.33;75.79
74940;HTU21D;63505;45.226;37.908;2022-12-18T02:04:34;11.30;75.86
74940;HTU21D;63505;45.226;37.908;2022-12-18T02:07:23;11.28;76.00
74940;HTU21D;63505;45.226;37.908;2022-12-18T02:09:57;11.32;75.96
74940;HTU21D;63505;45.226;37.908;2022-12-18T02:12:30;11.36;75.83
74940;HTU21D;63505;45.226;37.908;2022-12-18T02:15:14;11.42;75.71
74940;HTU21D;63505;45.226;37.908;2022-12-18T02:17:56;11.49;75.54
74940;HTU21D;63505;45.226;37.908;2022-12-18T02:20:36;11.55;75.35
74940;HTU21D;63505;45.226;37.908;2022-12-18T02:28:58;11.63;75.09
74940;HTU21D;63505;45.226;37.908;2022-12-18T02:31:35;11.63;75.06
74940;HTU21D;63505;45.226;37.908;2022-12-18T02:34:04;11.59;75.05
74940;HTU21D;63505;45.226;37.908;2022-12-18T02:36:38;11.57;75.04
74940;HTU21D;63505;45.226;37.908;2022-12-18T02:39:07;11.54;75.05
74940;HTU21D;63505;45.226;37.908;2022-12-18T02:41:36;11.53;74.99
74940;HTU21D;63505;45.226;37.908;2022-12-18T02:44:08;11.46;75.09
74940;HTU21D;63505;45.226;37.908;2022-12-18T02:46:38;11.40;75.31
74940;HTU21D;63505;45.226;37.908;2022-12-18T02:57:56;11.24;75.76
74940;HTU21D;63505;45.226;37.908;2022-12-18T03:00:43;11.33;75.58
74940;HTU21D;63505;45.226;37.908;2022-12-18T03:05:53;11.44;75.37
74940;HTU21D;63505;45.226;37.908;2022-12-18T03:08:23;11.48;75.25
74940;HTU21D;63505;45.226;37.908;2022-12-18T03:11:02;11.54;75.11
74940;HTU21D;63505;45.226;37.908;2022-12-18T03:13:46;11.62;74.85
74940;HTU21D;63505;45.226;37.908;2022-12-18T03:16:18;11.66;74.72
74940;HTU21D;63505;45.226;37.908;2022-12-18T03:18:58;11.70;74.69
74940;HTU21D;63505;45.226;37.908;2022-12-18T03:21:34;11.73;74.54
74940;HTU21D;63505;45.226;37.908;2022-12-18T03:24:06;11.78;74.33
74940;HTU21D;63505;45.226;37.908;2022-12-18T03:26:34;11.78;74.21
74940;HTU21D;63505;45.226;37.908;2022-12-18T03:29:10;11.84;74.12
74940;HTU21D;63505;45.226;37.908;2022-12-18T03:31:41;11.91;73.99
74940;HTU21D;63505;45.226;37.908;2022-12-18T03:34:21;11.99;73.79
74940;HTU21D;63505;45.226;37.908;2022-12-18T03:36:48;12.05;73.67
74940;HTU21D;63505;45.226;37.908;2022-12-18T03:39:15;12.08;73.70
74940;HTU21D;63505;45.226;37.908;2022-12-18T03:41:52;12.11;73.68
74940;HTU21D;63505;45.226;37.908;2022-12-18T03:47:16;12.20;73.32
74940;HTU21D;63505;45.226;37.908;2022-12-18T03:49:50;12.20;73.35
74940;HTU21D;63505;45.226;37.908;2022-12-18T03:52:25;12.21;73.21
74940;HTU21D;63505;45.226;37.908;2022-12-18T03:54:54;12.19;73.10
74940;HTU21D;63505;45.226;37.908;2022-12-18T03:57:23;12.10;73.32
74940;HTU21D;63505;45.226;37.908;2022-12-18T03:59:56;11.96;73.67
74940;HTU21D;63505;45.226;37.908;2022-12-18T04:02:28;11.85;73.99
74940;HTU21D;63505;45.226;37.908;2022-12-18T04:05:00;11.72;74.29
74940;HTU21D;63505;45.226;37.908;2022-12-18T04:07:28;11.64;74.57
74940;HTU21D;63505;45.226;37.908;2022-12-18T04:09:58;11.59;74.80
74940;HTU21D;63505;45.226;37.908;2022-12-18T04:12:26;11.57;74.92
74940;HTU21D;63505;45.226;37.908;2022-12-18T04:14:54;11.51;75.06
74940;HTU21D;63505;45.226;37.908;2022-12-18T04:17:21;11.45;75.20
74940;HTU21D;63505;45.226;37.908;2022-12-18T04:19:48;11.42;75.34
74940;HTU21D;63505;45.226;37.908;2022-12-18T04:22:15;11.43;75.44
74940;HTU21D;63505;45.226;37.908;2022-12-18T04:24:45;11.51;75.48
74940;HTU21D;63505;45.226;37.908;2022-12-18T04:27:19;11.57;75.45
74940;HTU21D;63505;45.226;37.908;2022-12-18T04:29:48;11.66;75.41
74940;HTU21D;63505;45.226;37.908;2022-12-18T04:32:17;11.70;75.38
74940;HTU21D;63505;45.226;37.908;2022-12-18T04:34:44;11.71;75.32
74940;HTU21D;63505;45.226;37.908;2022-12-18T04:37:10;11.72;75.40
74940;HTU21D;63505;45.226;37.908;2022-12-18T04:39:37;11.72;75.41
74940;HTU21D;63505;45.226;37.908;2022-12-18T04:42:09;11.70;75.50
74940;HTU21D;63505;45.226;37.908;2022-12-18T04:44:36;11.69;75.60
74940;HTU21D;63505;45.226;37.908;2022-12-18T04:47:02;11.69;75.67
74940;HTU21D;63505;45.226;37.908;2022-12-18T04:49:28;11.69;75.73
74940;HTU21D;63505;45.226;37.908;2022-12-18T04:51:53;11.71;75.78
74940;HTU21D;63505;45.226;37.908;2022-12-18T04:54:20;11.74;75.79
74940;HTU21D;63505;45.226;37.908;2022-12-18T04:56:46;11.75;75.82
74940;HTU21D;63505;45.226;37.908;2022-12-18T04:59:12;11.76;75.80
74940;HTU21D;63505;45.226;37.908;2022-12-18T05:01:38;11.76;75.83
74940;HTU21D;63505;45.226;37.908;2022-12-18T05:04:04;11.75;75.86
74940;HTU21D;63505;45.226;37.908;2022-12-18T05:06:30;11.72;75.93
74940;HTU21D;63505;45.226;37.908;2022-12-18T05:08:56;11.73;75.99
74940;HTU21D;63505;45.226;37.908;2022-12-18T05:11:21;11.77;75.96
74940;HTU21D;63505;45.226;37.908;2022-12-18T05:13:47;11.85;75.83
74940;HTU21D;63505;45.226;37.908;2022-12-18T05:16:13;11.93;75.70
74940;HTU21D;63505;45.226;37.908;2022-12-18T05:18:40;12.02;75.49
74940;HTU21D;63505;45.226;37.908;2022-12-18T05:21:06;12.11;75.26
74940;HTU21D;63505;45.226;37.908;2022-12-18T05:23:32;12.18;75.11
74940;HTU21D;63505;45.226;37.908;2022-12-18T05:26:03;12.26;74.99
74940;HTU21D;63505;45.226;37.908;2022-12-18T05:28:31;12.33;74.82
74940;HTU21D;63505;45.226;37.908;2022-12-18T05:30:59;12.45;74.52
74940;HTU21D;63505;45.226;37.908;2022-12-18T05:33:27;12.57;73.90
74940;HTU21D;63505;45.226;37.908;2022-12-18T05:35:58;12.63;73.77
74940;HTU21D;63505;45.226;37.908;2022-12-18T05:38:30;12.65;73.60
74940;HTU21D;63505;45.226;37.908;2022-12-18T05:40:58;12.66;73.57
74940;HTU21D;63505;45.226;37.908;2022-12-18T05:43:25;12.65;73.71
74940;HTU21D;63505;45.226;37.908;2022-12-18T05:45:51;12.61;73.93
74940;HTU21D;63505;45.226;37.908;2022-12-18T05:48:18;12.61;74.06
74940;HTU21D;63505;45.226;37.908;2022-12-18T05:50:45;12.64;74.11
74940;HTU21D;63505;45.226;37.908;2022-12-18T05:53:13;12.67;74.06
74940;HTU21D;63505;45.226;37.908;2022-12-18T05:55:41;12.73;74.03
74940;HTU21D;63505;45.226;37.908;2022-12-18T05:58:09;12.80;73.93
74940;HTU21D;63505;45.226;37.908;2022-12-18T06:00:37;12.91;73.76
74940;HTU21D;63505;45.226;37.908;2022-12-18T06:03:06;13.02;73.57
74940;HTU21D;63505;45.226;37.908;2022-12-18T06:05:37;13.12;73.48
74940;HTU21D;63505;45.226;37.908;2022-12-18T06:08:03;13.18;73.49
74940;HTU21D;63505;45.226;37.908;2022-12-18T06:10:30;13.22;73.57
74940;HTU21D;63505;45.226;37.908;2022-12-18T06:12:56;13.26;73.57
74940;HTU21D;63505;45.226;37.908;2022-12-18T06:15:21;13.29;73.60
74940;HTU21D;63505;45.226;37.908;2022-12-18T06:17:47;13.33;73.56
74940;HTU21D;63505;45.226;37.908;2022-12-18T06:20:13;13.37;73.52
74940;HTU21D;63505;45.226;37.908;2022-12-18T06:22:39;13.40;73.54
74940;HTU21D;63505;45.226;37.908;2022-12-18T06:25:05;13.43;73.61
74940;HTU21D;63505;45.226;37.908;2022-12-18T06:27:31;13.40;73.72
74940;HTU21D;63505;45.226;37.908;2022-12-18T06:29:59;13.39;73.83
74940;HTU21D;63505;45.226;37.908;2022-12-18T06:32:26;13.37;73.93
74940;HTU21D;63505;45.226;37.908;2022-12-18T06:34:52;13.38;74.04
74940;HTU21D;63505;45.226;37.908;2022-12-18T06:37:19;13.34;74.17
74940;HTU21D;63505;45.226;37.908;2022-12-18T06:39:45;13.27;74.34
74940;HTU21D;63505;45.226;37.908;2022-12-18T06:42:11;13.25;74.52
74940;HTU21D;63505;45.226;37.908;2022-12-18T06:44:37;13.26;74.64
74940;HTU21D;63505;45.226;37.908;2022-12-18T06:47:03;13.27;74.71
74940;HTU21D;63505;45.226;37.908;2022-12-18T06:49:29;13.31;74.74
74940;HTU21D;63505;45.226;37.908;2022-12-18T06:51:55;13.35;74.79
74940;HTU21D;63505;45.226;37.908;2022-12-18T06:54:20;13.39;74.80
74940;HTU21D;63505;45.226;37.908;2022-12-18T06:56:46;13.43;74.79
74940;HTU21D;63505;45.226;37.908;2022-12-18T06:59:13;13.45;74.78
74940;HTU21D;63505;45.226;37.908;2022-12-18T07:01:39;13.51;74.73
74940;HTU21D;63505;45.226;37.908;2022-12-18T07:04:04;13.59;74.68
74940;HTU21D;63505;45.226;37.908;2022-12-18T07:06:30;13.64;74.64
74940;HTU21D;63505;45.226;37.908;2022-12-18T07:08:56;13.74;74.57
74940;HTU21D;63505;45.226;37.908;2022-12-18T07:11:22;13.83;74.54
74940;HTU21D;63505;45.226;37.908;2022-12-18T07:13:48;13.97;74.47
74940;HTU21D;63505;45.226;37.908;2022-12-18T07:16:18;14.18;74.29
74940;HTU21D;63505;45.226;37.908;2022-12-18T07:18:45;14.30;74.15
74940;HTU21D;63505;45.226;37.908;2022-12-18T07:21:14;14.40;74.12
74940;HTU21D;63505;45.226;37.908;2022-12-18T07:23:40;14.47;74.14
74940;HTU21D;63505;45.226;37.908;2022-12-18T07:26:11;14.50;74.20
74940;HTU21D;63505;45.226;37.908;2022-12-18T07:28:39;14.52;74.26
74940;HTU21D;63505;45.226;37.908;2022-12-18T07:31:18;14.55;74.29
74940;HTU21D;63505;45.226;37.908;2022-12-18T07:33:45;14.55;74.36
74940;HTU21D;63505;45.226;37.908;2022-12-18T07:36:11;14.54;74.41
74940;HTU21D;63505;45.226;37.908;2022-12-18T07:38:37;14.52;74.48
74940;HTU21D;63505;45.226;37.908;2022-12-18T07:41:05;14.53;74.57
74940;HTU21D;63505;45.226;37.908;2022-12-18T07:43:32;14.51;74.64
74940;HTU21D;63505;45.226;37.908;2022-12-18T07:45:57;14.50;74.74
74940;HTU21D;63505;45.226;37.908;2022-12-18T07:48:23;14.53;74.80
74940;HTU21D;63505;45.226;37.908;2022-12-18T07:50:49;14.53;74.89
74940;HTU21D;63505;45.226;37.908;2022-12-18T07:53:15;14.55;74.99
74940;HTU21D;63505;45.226;37.908;2022-12-18T07:55:41;14.53;75.15
74940;HTU21D;63505;45.226;37.908;2022-12-18T07:58:08;14.50;75.27
74940;HTU21D;63505;45.226;37.908;2022-12-18T08:00:34;14.39;75.44
74940;HTU21D;63505;45.226;37.908;2022-12-18T08:03:00;14.32;75.67
74940;HTU21D;63505;45.226;37.908;2022-12-18T08:05:27;14.28;75.83
74940;HTU21D;63505;45.226;37.908;2022-12-18T08:07:54;14.25;76.02
74940;HTU21D;63505;45.226;37.908;2022-12-18T08:10:20;14.22;76.18
74940;HTU21D;63505;45.226;37.908;2022-12-18T08:12:50;14.20;76.42
74940;HTU21D;63505;45.226;37.908;2022-12-18T08:15:16;14.22;76.65
74940;HTU21D;63505;45.226;37.908;2022-12-18T08:17:42;14.38;76.70
74940;HTU21D;63505;45.226;37.908;2022-12-18T08:20:09;14.59;76.52
74940;HTU21D;63505;45.226;37.908;2022-12-18T08:22:35;14.79;76.29
74940;HTU21D;63505;45.226;37.908;2022-12-18T08:25:03;14.99;76.08
74940;HTU21D;63505;45.226;37.908;2022-12-18T08:27:30;15.10;75.93
74940;HTU21D;63505;45.226;37.908;2022-12-18T08:29:56;15.18;75.89
74940;HTU21D;63505;45.226;37.908;2022-12-18T08:32:23;15.26;75.85
74940;HTU21D;63505;45.226;37.908;2022-12-18T08:34:48;15.26;75.82
74940;HTU21D;63505;45.226;37.908;2022-12-18T08:37:14;15.12;76.08
74940;HTU21D;63505;45.226;37.908;2022-12-18T08:39:40;15.08;76.44
74940;HTU21D;63505;45.226;37.908;2022-12-18T08:42:06;15.03;76.55
74940;HTU21D;63505;45.226;37.908;2022-12-18T08:44:50;14.94;76.73
74940;HTU21D;63505;45.226;37.908;2022-12-18T08:47:16;14.88;76.89
74940;HTU21D;63505;45.226;37.908;2022-12-18T08:49:42;14.79;77.07
74940;HTU21D;63505;45.226;37.908;2022-12-18T08:52:08;14.66;77.34
74940;HTU21D;63505;45.226;37.908;2022-12-18T08:54:34;14.58;77.60
74940;HTU21D;63505;45.226;37.908;2022-12-18T08:57:00;14.54;77.81
74940;HTU21D;63505;45.226;37.908;2022-12-18T08:59:26;14.50;77.97
74940;HTU21D;63505;45.226;37.908;2022-12-18T09:01:55;14.48;78.09
74940;HTU21D;63505;45.226;37.908;2022-12-18T09:04:21;14.44;78.24
74940;HTU21D;63505;45.226;37.908;2022-12-18T09:06:47;14.43;78.41
74940;HTU21D;63505;45.226;37.908;2022-12-18T09:09:13;14.43;78.55
74940;HTU21D;63505;45.226;37.908;2022-12-18T09:11:39;14.43;78.62
74940;HTU21D;63505;45.226;37.908;2022-12-18T09:14:05;14.49;78.69
74940;HTU21D;63505;45.226;37.908;2022-12-18T09:16:32;14.53;78.75
74940;HTU21D;63505;45.226;37.908;2022-12-18T09:19:01;14.55;78.81
74940;HTU21D;63505;45.226;37.908;2022-12-18T09:21:30;14.57;78.92
74940;HTU21D;63505;45.226;37.908;2022-12-18T09:23:56;14.57;79.03
74940;HTU21D;63505;45.226;37.908;2022-12-18T09:26:23;14.58;79.20
74940;HTU21D;63505;45.226;37.908;2022-12-18T09:28:49;14.58;79.35
74940;HTU21D;63505;45.226;37.908;2022-12-18T09:31:16;14.58;79.57
74940;HTU21D;63505;45.226;37.908;2022-12-18T09:33:43;14.56;79.74
74940;HTU21D;63505;45.226;37.908;2022-12-18T09:36:12;14.36;79.96
74940;HTU21D;63505;45.226;37.908;2022-12-18T09:38:38;14.08;80.37
74940;HTU21D;63505;45.226;37.908;2022-12-18T09:47:22;13.40;81.11
74940;HTU21D;63505;45.226;37.908;2022-12-18T09:49:56;13.25;81.28
74940;HTU21D;63505;45.226;37.908;2022-12-18T09:52:32;13.14;81.39
74940;HTU21D;63505;45.226;37.908;2022-12-18T09:55:09;13.06;81.46
74940;HTU21D;63505;45.226;37.908;2022-12-18T09:57:40;13.00;81.44
74940;HTU21D;63505;45.226;37.908;2022-12-18T10:00:21;12.90;81.48
74940;HTU21D;63505;45.226;37.908;2022-12-18T10:02:47;12.82;81.57
74940;HTU21D;63505;45.226;37.908;2022-12-18T10:05:17;12.75;81.65
74940;HTU21D;63505;45.226;37.908;2022-12-18T10:18:25;12.28;82.23
74940;HTU21D;63505;45.226;37.908;2022-12-18T10:20:56;12.16;82.41
74940;HTU21D;63505;45.226;37.908;2022-12-18T10:26:05;12.00;82.75
74940;HTU21D;63505;45.226;37.908;2022-12-18T10:28:34;11.92;82.86
74940;HTU21D;63505;45.226;37.908;2022-12-18T10:31:00;11.87;83.00
74940;HTU21D;63505;45.226;37.908;2022-12-18T10:33:31;11.82;83.10
74940;HTU21D;63505;45.226;37.908;2022-12-18T10:35:58;11.74;83.26
74940;HTU21D;63505;45.226;37.908;2022-12-18T10:38:28;11.64;83.44
74940;HTU21D;63505;45.226;37.908;2022-12-18T10:41:01;11.57;83.67
74940;HTU21D;63505;45.226;37.908;2022-12-18T10:43:28;11.53;83.83
74940;HTU21D;63505;45.226;37.908;2022-12-18T10:46:12;11.48;83.91
74940;HTU21D;63505;45.226;37.908;2022-12-18T10:51:08;11.39;83.91
74940;HTU21D;63505;45.226;37.908;2022-12-18T10:53:36;11.29;84.06
74940;HTU21D;63505;45.226;37.908;2022-12-18T10:56:05;11.19;84.21
74940;HTU21D;63505;45.226;37.908;2022-12-18T10:58:34;11.11;84.33
74940;HTU21D;63505;45.226;37.908;2022-12-18T11:06:12;10.95;84.44
74940;HTU21D;63505;45.226;37.908;2022-12-18T11:08:40;10.88;84.48
74940;HTU21D;63505;45.226;37.908;2022-12-18T11:11:21;10.82;84.57
74940;HTU21D;63505;45.226;37.908;2022-12-18T11:14:07;10.72;84.60
74940;HTU21D;63505;45.226;37.908;2022-12-18T11:16:46;10.60;84.74
74940;HTU21D;63505;45.226;37.908;2022-12-18T11:21:40;10.37;85.02
74940;HTU21D;63505;45.226;37.908;2022-12-18T11:24:23;10.29;85.07
74940;HTU21D;63505;45.226;37.908;2022-12-18T11:26:51;10.23;85.15
74940;HTU21D;63505;45.226;37.908;2022-12-18T11:29:23;10.19;85.09
74940;HTU21D;63505;45.226;37.908;2022-12-18T11:31:50;10.12;85.08
74940;HTU21D;63505;45.226;37.908;2022-12-18T11:34:30;10.06;85.07
74940;HTU21D;63505;45.226;37.908;2022-12-18T11:36:58;10.00;85.09
74940;HTU21D;63505;45.226;37.908;2022-12-18T11:39:36;9.96;85.11
74940;HTU21D;63505;45.226;37.908;2022-12-18T11:42:14;9.92;85.05
74940;HTU21D;63505;45.226;37.908;2022-12-18T11:45:03;9.88;85.03
74940;HTU21D;63505;45.226;37.908;2022-12-18T11:50:01;9.82;84.94
74940;HTU21D;63505;45.226;37.908;2022-12-18T11:52:36;9.76;84.97
74940;HTU21D;63505;45.226;37.908;2022-12-18T11:55:50;9.68;85.00
74940;HTU21D;63505;45.226;37.908;2022-12-18T12:26:08;9.09;85.16
74940;HTU21D;63505;45.226;37.908;2022-12-18T12:28:59;9.09;85.13
74940;HTU21D;63505;45.226;37.908;2022-12-18T12:31:48;9.05;85.09
74940;HTU21D;63505;45.226;37.908;2022-12-18T12:34:25;9.03;85.06
74940;HTU21D;63505;45.226;37.908;2022-12-18T12:39:22;8.87;85.11
74940;HTU21D;63505;45.226;37.908;2022-12-18T12:41:58;8.81;85.22
74940;HTU21D;63505;45.226;37.908;2022-12-18T12:44:47;8.76;85.26
74940;HTU21D;63505;45.226;37.908;2022-12-18T12:47:22;8.72;85.22
74940;HTU21D;63505;45.226;37.908;2022-12-18T12:49:50;8.64;85.25
74940;HTU21D;63505;45.226;37.908;2022-12-18T12:52:30;8.60;85.34
74940;HTU21D;63505;45.226;37.908;2022-12-18T12:54:57;8.56;85.37
74940;HTU21D;63505;45.226;37.908;2022-12-18T12:57:30;8.55;85.33
74940;HTU21D;63505;45.226;37.908;2022-12-18T13:02:56;8.43;85.35
74940;HTU21D;63505;45.226;37.908;2022-12-18T13:05:30;8.37;85.40
74940;HTU21D;63505;45.226;37.908;2022-12-18T13:08:51;8.35;85.42
74940;HTU21D;63505;45.226;37.908;2022-12-18T13:10:48;8.32;85.40
74940;HTU21D;63505;45.226;37.908;2022-12-18T13:13:15;8.29;85.43
74940;HTU21D;63505;45.226;37.908;2022-12-18T13:15:45;8.29;85.45
74940;HTU21D;63505;45.226;37.908;2022-12-18T13:18:20;8.26;85.39
74940;HTU21D;63505;45.226;37.908;2022-12-18T13:25:49;8.17;85.40
74940;HTU21D;63505;45.226;37.908;2022-12-18T13:28:16;8.14;85.41
74940;HTU21D;63505;45.226;37.908;2022-12-18T13:30:45;8.11;85.34
74940;HTU21D;63505;45.226;37.908;2022-12-18T13:46:29;7.84;85.49
74940;HTU21D;63505;45.226;37.908;2022-12-18T13:49:03;7.82;85.51
74940;HTU21D;63505;45.226;37.908;2022-12-18T13:51:32;7.78;85.50
74940;HTU21D;63505;45.226;37.908;2022-12-18T13:54:00;7.77;85.53
74940;HTU21D;63505;45.226;37.908;2022-12-18T13:56:30;7.75;85.55
74940;HTU21D;63505;45.226;37.908;2022-12-18T13:59:12;7.73;85.48
74940;HTU21D;63505;45.226;37.908;2022-12-18T14:01:59;7.68;85.55
74940;HTU21D;63505;45.226;37.908;2022-12-18T14:04:28;7.63;85.55
74940;HTU21D;63505;45.226;37.908;2022-12-18T14:07:21;7.57;85.57
74940;HTU21D;63505;45.226;37.908;2022-12-18T14:09:50;7.47;85.58
74940;HTU21D;63505;45.226;37.908;2022-12-18T14:12:29;7.44;85.66
74940;HTU21D;63505;45.226;37.908;2022-12-18T14:20:31;7.31;85.63
74940;HTU21D;63505;45.226;37.908;2022-12-18T14:22:57;7.28;85.63
74940;HTU21D;63505;45.226;37.908;2022-12-18T14:25:28;7.26;85.61
74940;HTU21D;63505;45.226;37.908;2022-12-18T14:28:13;7.24;85.58
74940;HTU21D;63505;45.226;37.908;2022-12-18T14:30:41;7.17;85.54
74940;HTU21D;63505;45.226;37.908;2022-12-18T14:35:37;7.10;85.54
74940;HTU21D;63505;45.226;37.908;2022-12-18T14:41:15;7.04;85.51
74940;HTU21D;63505;45.226;37.908;2022-12-18T14:43:43;7.05;85.46
74940;HTU21D;63505;45.226;37.908;2022-12-18T14:46:32;7.00;85.41
74940;HTU21D;63505;45.226;37.908;2022-12-18T14:49:25;7.02;85.39
74940;HTU21D;63505;45.226;37.908;2022-12-18T14:51:54;7.00;85.33
74940;HTU21D;63505;45.226;37.908;2022-12-18T14:54:21;6.98;85.29
74940;HTU21D;63505;45.226;37.908;2022-12-18T14:56:51;6.94;85.26
74940;HTU21D;63505;45.226;37.908;2022-12-18T14:59:24;6.89;85.27
74940;HTU21D;63505;45.226;37.908;2022-12-18T15:04:44;6.85;85.27
74940;HTU21D;63505;45.226;37.908;2022-12-18T15:07:21;6.81;85.26
74940;HTU21D;63505;45.226;37.908;2022-12-18T15:12:35;6.72;85.26
74940;HTU21D;63505;45.226;37.908;2022-12-18T15:15:02;6.69;85.26
74940;HTU21D;63505;45.226;37.908;2022-12-18T15:17:28;6.66;85.27
74940;HTU21D;63505;45.226;37.908;2022-12-18T15:20:02;6.64;85.26
74940;HTU21D;63505;45.226;37.908;2022-12-18T15:22:30;6.63;85.26
74940;HTU21D;63505;45.226;37.908;2022-12-18T15:24:59;6.61;85.24
74940;HTU21D;63505;45.226;37.908;2022-12-18T15:32:35;6.63;85.12
74940;HTU21D;63505;45.226;37.908;2022-12-18T15:35:23;6.60;85.07
74940;HTU21D;63505;45.226;37.908;2022-12-18T15:37:52;6.64;85.05
74940;HTU21D;63505;45.226;37.908;2022-12-18T15:40:21;6.64;84.97
74940;HTU21D;63505;45.226;37.908;2022-12-18T15:42:48;6.65;85.00
74940;HTU21D;63505;45.226;37.908;2022-12-18T15:45:33;6.68;84.95
74940;HTU21D;63505;45.226;37.908;2022-12-18T15:47:59;6.68;84.90
74940;HTU21D;63505;45.226;37.908;2022-12-18T15:50:25;6.70;84.86
74940;HTU21D;63505;45.226;37.908;2022-12-18T15:52:52;6.69;84.84
74940;HTU21D;63505;45.226;37.908;2022-12-18T15:55:22;6.67;84.85
74940;HTU21D;63505;45.226;37.908;2022-12-18T15:58:07;6.67;84.86
74940;HTU21D;63505;45.226;37.908;2022-12-18T16:00:35;6.65;84.81
74940;HTU21D;63505;45.226;37.908;2022-12-18T16:03:03;6.63;84.79
74940;HTU21D;63505;45.226;37.908;2022-12-18T16:05:30;6.60;84.79
74940;HTU21D;63505;45.226;37.908;2022-12-18T16:07:56;6.58;84.77
74940;HTU21D;63505;45.226;37.908;2022-12-18T16:10:22;6.59;84.77
74940;HTU21D;63505;45.226;37.908;2022-12-18T16:12:49;6.56;84.77
74940;HTU21D;63505;45.226;37.908;2022-12-18T16:15:15;6.57;84.76
74940;HTU21D;63505;45.226;37.908;2022-12-18T16:17:42;6.57;84.73
74940;HTU21D;63505;45.226;37.908;2022-12-18T16:20:20;6.53;84.70
74940;HTU21D;63505;45.226;37.908;2022-12-18T16:22:47;6.55;84.72
74940;HTU21D;63505;45.226;37.908;2022-12-18T16:25:25;6.57;84.65
74940;HTU21D;63505;45.226;37.908;2022-12-18T16:27:52;6.57;84.60
74940;HTU21D;63505;45.226;37.908;2022-12-18T16:30:21;6.56;84.55
74940;HTU21D;63505;45.226;37.908;2022-12-18T16:32:48;6.55;84.49
74940;HTU21D;63505;45.226;37.908;2022-12-18T16:35:15;6.54;84.49
74940;HTU21D;63505;45.226;37.908;2022-12-18T16:37:43;6.55;84.46
74940;HTU21D;63505;45.226;37.908;2022-12-18T16:40:11;6.53;84.45
74940;HTU21D;63505;45.226;37.908;2022-12-18T16:42:39;6.55;84.43
74940;HTU21D;63505;45.226;37.908;2022-12-18T16:45:07;6.55;84.39
74940;HTU21D;63505;45.226;37.908;2022-12-18T16:47:33;6.55;84.35
74940;HTU21D;63505;45.226;37.908;2022-12-18T16:49:59;6.55;84.29
74940;HTU21D;63505;45.226;37.908;2022-12-18T16:52:26;6.54;84.29
74940;HTU21D;63505;45.226;37.908;2022-12-18T16:54:52;6.52;84.23
74940;HTU21D;63505;45.226;37.908;2022-12-18T16:57:19;6.50;84.20
74940;HTU21D;63505;45.226;37.908;2022-12-18T16:59:45;6.48;84.19
74940;HTU21D;63505;45.226;37.908;2022-12-18T17:02:17;6.43;84.16
74940;HTU21D;63505;45.226;37.908;2022-12-18T17:04:44;6.38;84.18
74940;HTU21D;63505;45.226;37.908;2022-12-18T17:07:10;6.35;84.16
74940;HTU21D;63505;45.226;37.908;2022-12-18T17:09:38;6.31;84.15
74940;HTU21D;63505;45.226;37.908;2022-12-18T17:12:04;6.29;84.15
74940;HTU21D;63505;45.226;37.908;2022-12-18T17:14:31;6.28;84.07
74940;HTU21D;63505;45.226;37.908;2022-12-18T17:16:58;6.26;84.05
74940;HTU21D;63505;45.226;37.908;2022-12-18T17:19:27;6.23;84.03
74940;HTU21D;63505;45.226;37.908;2022-12-18T17:21:54;6.26;83.99
74940;HTU21D;63505;45.226;37.908;2022-12-18T17:24:20;6.25;83.93
74940;HTU21D;63505;45.226;37.908;2022-12-18T17:26:47;6.24;83.90
74940;HTU21D;63505;45.226;37.908;2022-12-18T17:29:15;6.25;83.87